Aviation Digital Data Service (ADDS)

Output produced by METARs form (0505 UTC 16 February 2019)
found at http://www.aviationweather.gov/metar/data/
 
METAR text: KLGB 160453Z 26007KT 10SM SCT060 BKN080 13/09 A3009 RMK AO2 RAB34E50 SLP189 P0000 T01280089
Conditions at: KLGB (LONG BEACH , CA, US) observed 0453 UTC 16 February 2019
Temperature: 12.8°C (55°F)
Dewpoint: 8.9°C (48°F) [RH = 77%]
Pressure (altimeter): 30.09 inches Hg (1019.0 mb)
[Sea-level pressure: 1018.9 mb]
Winds: from the W (260 degrees) at 8 MPH (7 knots; 3.6 m/s)
Visibility: 10 or more miles (16+ km)
Ceiling: 8000 feet AGL
Clouds: scattered clouds at 6000 feet AGL
broken clouds at 8000 feet AGL
Weather: no significant weather observed at this time

METAR text: KLGB 160353Z 27007KT 10SM FEW019 BKN065 BKN080 13/10 A3009 RMK AO2 RAE30 SLP188 P0001 T01280100
Conditions at: KLGB (LONG BEACH , CA, US) observed 0353 UTC 16 February 2019
Temperature: 12.8°C (55°F)
Dewpoint: 10.0°C (50°F) [RH = 83%]
Pressure (altimeter): 30.09 inches Hg (1019.0 mb)
[Sea-level pressure: 1018.8 mb]
Winds: from the W (270 degrees) at 8 MPH (7 knots; 3.6 m/s)
Visibility: 10 or more miles (16+ km)
Ceiling: 6500 feet AGL
Clouds: few clouds at 1900 feet AGL
broken clouds at 6500 feet AGL
broken clouds at 8000 feet AGL
Weather: no significant weather observed at this time

METAR text: KLGB 160324Z 29008KT 9SM -RA SCT012 BKN017 OVC046 13/11 A3010 RMK AO2 P0001 T01280106
Conditions at: KLGB (LONG BEACH , CA, US) observed 0324 UTC 16 February 2019
Temperature: 12.8°C (55°F)
Dewpoint: 10.6°C (51°F) [RH = 86%]
Pressure (altimeter): 30.10 inches Hg (1019.4 mb)
Winds: from the WNW (290 degrees) at 9 MPH (8 knots; 4.1 m/s)
Visibility: 9 miles (14 km)
Ceiling: 1700 feet AGL
Clouds: scattered clouds at 1200 feet AGL
broken clouds at 1700 feet AGL
overcast cloud deck at 4600 feet AGL
Weather: -RA  (light rain)

METAR text: KLGB 160253Z 22006KT 2SM -RA BR FEW006 BKN016 OVC030 12/11 A3009 RMK AO2 SLP188 P0012 60014 T01220106 53001
Conditions at: KLGB (LONG BEACH , CA, US) observed 0253 UTC 16 February 2019
Temperature: 12.2°C (54°F)
Dewpoint: 10.6°C (51°F) [RH = 90%]
Pressure (altimeter): 30.09 inches Hg (1019.0 mb)
[Sea-level pressure: 1018.8 mb]
Winds: from the SW (220 degrees) at 7 MPH (6 knots; 3.1 m/s)
Visibility: 2.00 miles (3.22 km)
Ceiling: 1600 feet AGL
Clouds: few clouds at 600 feet AGL
broken clouds at 1600 feet AGL
overcast cloud deck at 3000 feet AGL
Weather: -RA BR  (light rain, mist)

METAR text: KLGB 160207Z 23009KT 2 1/2SM RA BR FEW011 BKN025 OVC030 12/10 A3008 RMK AO2 P0001 T01220100
Conditions at: KLGB (LONG BEACH , CA, US) observed 0207 UTC 16 February 2019
Temperature: 12.2°C (54°F)
Dewpoint: 10.0°C (50°F) [RH = 86%]
Pressure (altimeter): 30.08 inches Hg (1018.7 mb)
Winds: from the SW (230 degrees) at 10 MPH (9 knots; 4.6 m/s)
Visibility: 2.50 miles (4.02 km)
Ceiling: 2500 feet AGL
Clouds: few clouds at 1100 feet AGL
broken clouds at 2500 feet AGL
overcast cloud deck at 3000 feet AGL
Weather: RA BR  (moderate rain, mist)

METAR text: KLGB 160155Z 23010KT 6SM -RA FEW024 OVC034 13/10 A3008 RMK AO2 P0000 T01280100
Conditions at: KLGB (LONG BEACH , CA, US) observed 0155 UTC 16 February 2019
Temperature: 12.8°C (55°F)
Dewpoint: 10.0°C (50°F) [RH = 83%]
Pressure (altimeter): 30.08 inches Hg (1018.7 mb)
Winds: from the SW (230 degrees) at 12 MPH (10 knots; 5.1 m/s)
Visibility: 6 miles (10 km)
Ceiling: 3400 feet AGL
Clouds: few clouds at 2400 feet AGL
overcast cloud deck at 3400 feet AGL
Weather: -RA  (light rain)

METAR text: KLGB 160153Z 24008KT 2 1/2SM -RA FEW024 BKN029 OVC039 13/10 A3008 RMK AO2 RAB36 SLP186 P0002 T01280100
Conditions at: KLGB (LONG BEACH , CA, US) observed 0153 UTC 16 February 2019
Temperature: 12.8°C (55°F)
Dewpoint: 10.0°C (50°F) [RH = 83%]
Pressure (altimeter): 30.08 inches Hg (1018.7 mb)
[Sea-level pressure: 1018.6 mb]
Winds: from the WSW (240 degrees) at 9 MPH (8 knots; 4.1 m/s)
Visibility: 2.50 miles (4.02 km)
Ceiling: 2900 feet AGL
Clouds: few clouds at 2400 feet AGL
broken clouds at 2900 feet AGL
overcast cloud deck at 3900 feet AGL
Weather: -RA  (light rain)

METAR text: KLGB 160151Z 24008KT 2 1/2SM -RA FEW024 BKN029 OVC039 13/10 A3008 RMK AO2 RAB36 P0002
Conditions at: KLGB (LONG BEACH , CA, US) observed 0151 UTC 16 February 2019
Temperature: 13.0°C (55°F)
Dewpoint: 10.0°C (50°F) [RH = 82%]
Pressure (altimeter): 30.08 inches Hg (1018.7 mb)
Winds: from the WSW (240 degrees) at 9 MPH (8 knots; 4.1 m/s)
Visibility: 2.50 miles (4.02 km)
Ceiling: 2900 feet AGL
Clouds: few clouds at 2400 feet AGL
broken clouds at 2900 feet AGL
overcast cloud deck at 3900 feet AGL
Weather: -RA  (light rain)

METAR text: KLGB 160053Z 23007KT 10SM FEW028 BKN044 OVC060 15/08 A3007 RMK AO2 SLP183 T01500083
Conditions at: KLGB (LONG BEACH , CA, US) observed 0053 UTC 16 February 2019
Temperature: 15.0°C (59°F)
Dewpoint: 8.3°C (47°F) [RH = 64%]
Pressure (altimeter): 30.07 inches Hg (1018.4 mb)
[Sea-level pressure: 1018.3 mb]
Winds: from the SW (230 degrees) at 8 MPH (7 knots; 3.6 m/s)
Visibility: 10 or more miles (16+ km)
Ceiling: 4400 feet AGL
Clouds: few clouds at 2800 feet AGL
broken clouds at 4400 feet AGL
overcast cloud deck at 6000 feet AGL
Weather: no significant weather observed at this time

METAR text: KLGB 152353Z 21009KT 10SM FEW033 SCT040 OVC065 15/07 A3009 RMK AO2 SLP187 T01500072 10161 20144 56010
Conditions at: KLGB (LONG BEACH , CA, US) observed 2353 UTC 15 February 2019
Temperature: 15.0°C (59°F)
Dewpoint: 7.2°C (45°F) [RH = 60%]
Pressure (altimeter): 30.09 inches Hg (1019.0 mb)
[Sea-level pressure: 1018.7 mb]
Winds: from the SSW (210 degrees) at 10 MPH (9 knots; 4.6 m/s)
Visibility: 10 or more miles (16+ km)
Ceiling: 6500 feet AGL
Clouds: few clouds at 3300 feet AGL
scattered clouds at 4000 feet AGL
overcast cloud deck at 6500 feet AGL
Weather: no significant weather observed at this time

METAR text: KLGB 152253Z 21010KT 10SM SCT030 BKN042 OVC070 15/08 A3009 RMK AO2 SLP187 T01500083
Conditions at: KLGB (LONG BEACH , CA, US) observed 2253 UTC 15 February 2019
Temperature: 15.0°C (59°F)
Dewpoint: 8.3°C (47°F) [RH = 64%]
Pressure (altimeter): 30.09 inches Hg (1019.0 mb)
[Sea-level pressure: 1018.7 mb]
Winds: from the SSW (210 degrees) at 12 MPH (10 knots; 5.1 m/s)
Visibility: 10 or more miles (16+ km)
Ceiling: 4200 feet AGL
Clouds: scattered clouds at 3000 feet AGL
broken clouds at 4200 feet AGL
overcast cloud deck at 7000 feet AGL
Weather: no significant weather observed at this time

METAR text: KLGB 152153Z 20010KT 10SM SCT043 BKN049 OVC080 15/08 A3009 RMK AO2 SLP190 T01500078
Conditions at: KLGB (LONG BEACH , CA, US) observed 2153 UTC 15 February 2019
Temperature: 15.0°C (59°F)
Dewpoint: 7.8°C (46°F) [RH = 62%]
Pressure (altimeter): 30.09 inches Hg (1019.0 mb)
[Sea-level pressure: 1019.0 mb]
Winds: from the SSW (200 degrees) at 12 MPH (10 knots; 5.1 m/s)
Visibility: 10 or more miles (16+ km)
Ceiling: 4900 feet AGL
Clouds: scattered clouds at 4300 feet AGL
broken clouds at 4900 feet AGL
overcast cloud deck at 8000 feet AGL
Weather: no significant weather observed at this time

METAR text: KLGB 152053Z 21009KT 10SM FEW055 16/07 A3012 RMK AO2 SLP197 T01610072 58006
Conditions at: KLGB (LONG BEACH , CA, US) observed 2053 UTC 15 February 2019
Temperature: 16.1°C (61°F)
Dewpoint: 7.2°C (45°F) [RH = 56%]
Pressure (altimeter): 30.12 inches Hg (1020.1 mb)
[Sea-level pressure: 1019.7 mb]
Winds: from the SSW (210 degrees) at 10 MPH (9 knots; 4.6 m/s)
Visibility: 10 or more miles (16+ km)
Ceiling: at least 12,000 feet AGL
Clouds: few clouds at 5500 feet AGL
Weather: no significant weather observed at this time

METAR text: KLGB 151953Z 18006KT 10SM BKN042 OVC050 14/07 A3013 RMK AO2 SLP202 T01440072
Conditions at: KLGB (LONG BEACH , CA, US) observed 1953 UTC 15 February 2019
Temperature: 14.4°C (58°F)
Dewpoint: 7.2°C (45°F) [RH = 62%]
Pressure (altimeter): 30.13 inches Hg (1020.4 mb)
[Sea-level pressure: 1020.2 mb]
Winds: from the S (180 degrees) at 7 MPH (6 knots; 3.1 m/s)
Visibility: 10 or more miles (16+ km)
Ceiling: 4200 feet AGL
Clouds: broken clouds at 4200 feet AGL
overcast cloud deck at 5000 feet AGL
Weather: no significant weather observed at this time

METAR text: KLGB 151853Z COR 00000KT 10SM BKN040 15/07 A3014 RMK AO2 SLP204 T01500072
Conditions at: KLGB (LONG BEACH , CA, US) observed 1853 UTC 15 February 2019
Temperature: 15.0°C (59°F)
Dewpoint: 7.2°C (45°F) [RH = 60%]
Pressure (altimeter): 30.14 inches Hg (1020.7 mb)
[Sea-level pressure: 1020.4 mb]
Winds: calm
Visibility: 10 or more miles (16+ km)
Ceiling: 4000 feet AGL
Clouds: broken clouds at 4000 feet AGL
Weather: no significant weather observed at this time

METAR text: KLGB 151753Z 00000KT 9SM FEW026 BKN039 BKN046 15/09 A3013 RMK AO2 SLP203 T01500094 10150 20094 51016
Conditions at: KLGB (LONG BEACH , CA, US) observed 1753 UTC 15 February 2019
Temperature: 15.0°C (59°F)
Dewpoint: 9.4°C (49°F) [RH = 69%]
Pressure (altimeter): 30.13 inches Hg (1020.4 mb)
[Sea-level pressure: 1020.3 mb]
Winds: calm
Visibility: 9 miles (14 km)
Ceiling: 3900 feet AGL
Clouds: few clouds at 2600 feet AGL
broken clouds at 3900 feet AGL
broken clouds at 4600 feet AGL
Weather: no significant weather observed at this time

METAR text: KLGB 151653Z COR 00000KT 10SM SCT035 14/09 A3012 RMK AO2 SLP200 T01390094
Conditions at: KLGB (LONG BEACH , CA, US) observed 1653 UTC 15 February 2019
Temperature: 13.9°C (57°F)
Dewpoint: 9.4°C (49°F) [RH = 74%]
Pressure (altimeter): 30.12 inches Hg (1020.1 mb)
[Sea-level pressure: 1020.0 mb]
Winds: calm
Visibility: 10 or more miles (16+ km)
Ceiling: at least 12,000 feet AGL
Clouds: scattered clouds at 3500 feet AGL
Weather: no significant weather observed at this time

METAR text: KLGB 151553Z 00000KT 5SM BR CLR 11/09 A3011 RMK AO2 SLP194 T01110094
Conditions at: KLGB (LONG BEACH , CA, US) observed 1553 UTC 15 February 2019
Temperature: 11.1°C (52°F)
Dewpoint: 9.4°C (49°F) [RH = 89%]
Pressure (altimeter): 30.11 inches Hg (1019.7 mb)
[Sea-level pressure: 1019.4 mb]
Winds: calm
Visibility: 5 miles ( 8 km)
Ceiling: at least 12,000 feet AGL
Clouds: sky clear below 12,000 feet AGL
Weather: BR  (mist)

METAR text: KLGB 151453Z 33003KT 6SM BR CLR 10/08 A3009 RMK AO2 SLP188 T01000083 53012
Conditions at: KLGB (LONG BEACH , CA, US) observed 1453 UTC 15 February 2019
Temperature: 10.0°C (50°F)
Dewpoint: 8.3°C (47°F) [RH = 89%]
Pressure (altimeter): 30.09 inches Hg (1019.0 mb)
[Sea-level pressure: 1018.8 mb]
Winds: from the NNW (330 degrees) at 3 MPH (3 knots; 1.5 m/s)
Visibility: 6 miles (10 km)
Ceiling: at least 12,000 feet AGL
Clouds: sky clear below 12,000 feet AGL
Weather: BR  (mist)

METAR text: KLGB 151353Z AUTO 00000KT 7SM SCT055 10/09 A3008 RMK AO2 SLP185 T01000089
Conditions at: KLGB (LONG BEACH , CA, US) observed 1353 UTC 15 February 2019
Temperature: 10.0°C (50°F)
Dewpoint: 8.9°C (48°F) [RH = 93%]
Pressure (altimeter): 30.08 inches Hg (1018.7 mb)
[Sea-level pressure: 1018.5 mb]
Winds: calm
Visibility: 7 miles (11 km)
Ceiling: at least 12,000 feet AGL
Clouds: scattered clouds at 5500 feet AGL
Weather: automated observation with no human augmentation;
there may or may not be significant weather present at this time

METAR text: KLGB 151253Z AUTO 00000KT 8SM BKN050 10/09 A3005 RMK AO2 SLP175 T01000089
Conditions at: KLGB (LONG BEACH , CA, US) observed 1253 UTC 15 February 2019
Temperature: 10.0°C (50°F)
Dewpoint: 8.9°C (48°F) [RH = 93%]
Pressure (altimeter): 30.05 inches Hg (1017.7 mb)
[Sea-level pressure: 1017.5 mb]
Winds: calm
Visibility: 8 miles (13 km)
Ceiling: 5000 feet AGL
Clouds: broken clouds at 5000 feet AGL
Weather: automated observation with no human augmentation;
there may or may not be significant weather present at this time

METAR text: KLGB 151153Z AUTO 00000KT 7SM FEW028 FEW038 SCT049 11/09 A3005 RMK AO2 RAB34E43 SLP176 P0000 60000 70135 T01060089 10139 20100 53008
Conditions at: KLGB (LONG BEACH , CA, US) observed 1153 UTC 15 February 2019
Temperature: 10.6°C (51°F)
Dewpoint: 8.9°C (48°F) [RH = 89%]
Pressure (altimeter): 30.05 inches Hg (1017.7 mb)
[Sea-level pressure: 1017.6 mb]
Winds: calm
Visibility: 7 miles (11 km)
Ceiling: at least 12,000 feet AGL
Clouds: few clouds at 2800 feet AGL
few clouds at 3800 feet AGL
scattered clouds at 4900 feet AGL
Weather: automated observation with no human augmentation;
there may or may not be significant weather present at this time

METAR text: KLGB 151053Z AUTO 00000KT 6SM BR BKN032 BKN039 10/09 A3003 RMK AO2 SLP168 T01000089
Conditions at: KLGB (LONG BEACH , CA, US) observed 1053 UTC 15 February 2019
Temperature: 10.0°C (50°F)
Dewpoint: 8.9°C (48°F) [RH = 93%]
Pressure (altimeter): 30.03 inches Hg (1017.0 mb)
[Sea-level pressure: 1016.8 mb]
Winds: calm
Visibility: 6 miles (10 km)
Ceiling: 3200 feet AGL
Clouds: broken clouds at 3200 feet AGL
broken clouds at 3900 feet AGL
Weather: BR  (mist)

METAR text: KLGB 150953Z AUTO 00000KT 7SM SCT029 11/09 A3003 RMK AO2 SLP169 T01060089
Conditions at: KLGB (LONG BEACH , CA, US) observed 0953 UTC 15 February 2019
Temperature: 10.6°C (51°F)
Dewpoint: 8.9°C (48°F) [RH = 89%]
Pressure (altimeter): 30.03 inches Hg (1017.0 mb)
[Sea-level pressure: 1016.9 mb]
Winds: calm
Visibility: 7 miles (11 km)
Ceiling: at least 12,000 feet AGL
Clouds: scattered clouds at 2900 feet AGL
Weather: automated observation with no human augmentation;
there may or may not be significant weather present at this time

METAR text: KLGB 150853Z AUTO 00000KT 7SM SCT026 OVC032 12/09 A3003 RMK AO2 SLP167 T01170094 50004
Conditions at: KLGB (LONG BEACH , CA, US) observed 0853 UTC 15 February 2019
Temperature: 11.7°C (53°F)
Dewpoint: 9.4°C (49°F) [RH = 86%]
Pressure (altimeter): 30.03 inches Hg (1017.0 mb)
[Sea-level pressure: 1016.7 mb]
Winds: calm
Visibility: 7 miles (11 km)
Ceiling: 3200 feet AGL
Clouds: scattered clouds at 2600 feet AGL
overcast cloud deck at 3200 feet AGL
Weather: automated observation with no human augmentation;
there may or may not be significant weather present at this time

METAR text: KLGB 150828Z AUTO 00000KT 7SM BKN024 OVC034 12/09 A3003 RMK AO2 T01170094
Conditions at: KLGB (LONG BEACH , CA, US) observed 0828 UTC 15 February 2019
Temperature: 11.7°C (53°F)
Dewpoint: 9.4°C (49°F) [RH = 86%]
Pressure (altimeter): 30.03 inches Hg (1017.0 mb)
Winds: calm
Visibility: 7 miles (11 km)
Ceiling: 2400 feet AGL
Clouds: broken clouds at 2400 feet AGL
overcast cloud deck at 3400 feet AGL
Weather: automated observation with no human augmentation;
there may or may not be significant weather present at this time

METAR text: KLGB 150753Z AUTO 00000KT 7SM FEW033 12/09 A3003 RMK AO2 SLP168 T01170094 401720117
Conditions at: KLGB (LONG BEACH , CA, US) observed 0753 UTC 15 February 2019
Temperature: 11.7°C (53°F)
Dewpoint: 9.4°C (49°F) [RH = 86%]
Pressure (altimeter): 30.03 inches Hg (1017.0 mb)
[Sea-level pressure: 1016.8 mb]
Winds: calm
Visibility: 7 miles (11 km)
Ceiling: at least 12,000 feet AGL
Clouds: few clouds at 3300 feet AGL
Weather: automated observation with no human augmentation;
there may or may not be significant weather present at this time

METAR text: KLGB 150653Z 27004KT 8SM CLR 13/09 A3002 RMK AO2 SLP166 T01330089
Conditions at: KLGB (LONG BEACH , CA, US) observed 0653 UTC 15 February 2019
Temperature: 13.3°C (56°F)
Dewpoint: 8.9°C (48°F) [RH = 75%]
Pressure (altimeter): 30.02 inches Hg (1016.7 mb)
[Sea-level pressure: 1016.6 mb]
Winds: from the W (270 degrees) at 5 MPH (4 knots; 2.1 m/s)
Visibility: 8 miles (13 km)
Ceiling: at least 12,000 feet AGL
Clouds: sky clear below 12,000 feet AGL
Weather: no significant weather observed at this time

METAR text: KLGB 150553Z 23005KT 9SM CLR 14/09 A3002 RMK AO2 SLP164 60000 T01390089 10161 20133 51032
Conditions at: KLGB (LONG BEACH , CA, US) observed 0553 UTC 15 February 2019
Temperature: 13.9°C (57°F)
Dewpoint: 8.9°C (48°F) [RH = 72%]
Pressure (altimeter): 30.02 inches Hg (1016.7 mb)
[Sea-level pressure: 1016.4 mb]
Winds: from the SW (230 degrees) at 6 MPH (5 knots; 2.6 m/s)
Visibility: 9 miles (14 km)
Ceiling: at least 12,000 feet AGL
Clouds: sky clear below 12,000 feet AGL
Weather: no significant weather observed at this time

METAR text: KLGB 150514Z 27003KT 9SM SCT028 14/09 A2999 RMK AO2 T01390089
Conditions at: KLGB (LONG BEACH , CA, US) observed 0514 UTC 15 February 2019
Temperature: 13.9°C (57°F)
Dewpoint: 8.9°C (48°F) [RH = 72%]
Pressure (altimeter): 29.99 inches Hg (1015.7 mb)
Winds: from the W (270 degrees) at 3 MPH (3 knots; 1.5 m/s)
Visibility: 9 miles (14 km)
Ceiling: at least 12,000 feet AGL
Clouds: scattered clouds at 2800 feet AGL
Weather: no significant weather observed at this time

METAR text: KLGB 150453Z 22005KT 8SM OVC028 14/10 A2999 RMK AO2 SLP156 T01390100
Conditions at: KLGB (LONG BEACH , CA, US) observed 0453 UTC 15 February 2019
Temperature: 13.9°C (57°F)
Dewpoint: 10.0°C (50°F) [RH = 77%]
Pressure (altimeter): 29.99 inches Hg (1015.7 mb)
[Sea-level pressure: 1015.6 mb]
Winds: from the SW (220 degrees) at 6 MPH (5 knots; 2.6 m/s)
Visibility: 8 miles (13 km)
Ceiling: 2800 feet AGL
Clouds: overcast cloud deck at 2800 feet AGL
Weather: no significant weather observed at this time

METAR text: KLGB 150446Z 21005KT 8SM BKN028 14/10 A2999 RMK AO2 T01390100
Conditions at: KLGB (LONG BEACH , CA, US) observed 0446 UTC 15 February 2019
Temperature: 13.9°C (57°F)
Dewpoint: 10.0°C (50°F) [RH = 77%]
Pressure (altimeter): 29.99 inches Hg (1015.7 mb)
Winds: from the SSW (210 degrees) at 6 MPH (5 knots; 2.6 m/s)
Visibility: 8 miles (13 km)
Ceiling: 2800 feet AGL
Clouds: broken clouds at 2800 feet AGL
Weather: no significant weather observed at this time

METAR text: KLGB 150353Z 26004KT 9SM FEW038 OVC060 14/10 A2996 RMK AO2 RAB0257E22 SLP145 P0000 T01390100
Conditions at: KLGB (LONG BEACH , CA, US) observed 0353 UTC 15 February 2019
Temperature: 13.9°C (57°F)
Dewpoint: 10.0°C (50°F) [RH = 77%]
Pressure (altimeter): 29.96 inches Hg (1014.6 mb)
[Sea-level pressure: 1014.5 mb]
Winds: from the W (260 degrees) at 5 MPH (4 knots; 2.1 m/s)
Visibility: 9 miles (14 km)
Ceiling: 6000 feet AGL
Clouds: few clouds at 3800 feet AGL
overcast cloud deck at 6000 feet AGL
Weather: no significant weather observed at this time

METAR text: KLGB 150308Z 28007KT 9SM -RA SCT027 OVC039 14/09 A2993 RMK AO2 RAB0257 P0000 T01390094
Conditions at: KLGB (LONG BEACH , CA, US) observed 0308 UTC 15 February 2019
Temperature: 13.9°C (57°F)
Dewpoint: 9.4°C (49°F) [RH = 74%]
Pressure (altimeter): 29.93 inches Hg (1013.6 mb)
Winds: from the W (280 degrees) at 8 MPH (7 knots; 3.6 m/s)
Visibility: 9 miles (14 km)
Ceiling: 3900 feet AGL
Clouds: scattered clouds at 2700 feet AGL
overcast cloud deck at 3900 feet AGL
Weather: -RA  (light rain)

METAR text: KLGB 150253Z 27007KT 8SM BKN027 BKN033 BKN043 14/10 A2992 RMK AO2 RAB01E13 SLP132 P0000 60000 T01440100 53029
Conditions at: KLGB (LONG BEACH , CA, US) observed 0253 UTC 15 February 2019
Temperature: 14.4°C (58°F)
Dewpoint: 10.0°C (50°F) [RH = 75%]
Pressure (altimeter): 29.92 inches Hg (1013.3 mb)
[Sea-level pressure: 1013.2 mb]
Winds: from the W (270 degrees) at 8 MPH (7 knots; 3.6 m/s)
Visibility: 8 miles (13 km)
Ceiling: 2700 feet AGL
Clouds: broken clouds at 2700 feet AGL
broken clouds at 3300 feet AGL
broken clouds at 4300 feet AGL
Weather: no significant weather observed at this time

METAR text: KLGB 150153Z 25009KT 8SM FEW024 OVC033 15/10 A2987 RMK AO2 SLP115 T01500100
Conditions at: KLGB (LONG BEACH , CA, US) observed 0153 UTC 15 February 2019
Temperature: 15.0°C (59°F)
Dewpoint: 10.0°C (50°F) [RH = 72%]
Pressure (altimeter): 29.87 inches Hg (1011.6 mb)
[Sea-level pressure: 1011.5 mb]
Winds: from the WSW (250 degrees) at 10 MPH (9 knots; 4.6 m/s)
Visibility: 8 miles (13 km)
Ceiling: 3300 feet AGL
Clouds: few clouds at 2400 feet AGL
overcast cloud deck at 3300 feet AGL
Weather: no significant weather observed at this time

METAR text: KLGB 150053Z 26010KT 8SM SCT020 SCT050 16/10 A2985 RMK AO2 SLP108 T01560100
Conditions at: KLGB (LONG BEACH , CA, US) observed 0053 UTC 15 February 2019
Temperature: 15.6°C (60°F)
Dewpoint: 10.0°C (50°F) [RH = 69%]
Pressure (altimeter): 29.85 inches Hg (1010.9 mb)
[Sea-level pressure: 1010.8 mb]
Winds: from the W (260 degrees) at 12 MPH (10 knots; 5.1 m/s)
Visibility: 8 miles (13 km)
Ceiling: at least 12,000 feet AGL
Clouds: scattered clouds at 2000 feet AGL
scattered clouds at 5000 feet AGL
Weather: no significant weather observed at this time

METAR text: KLGB 142353Z 26016G21KT 10SM FEW020 SCT050 16/10 A2984 RMK AO2 SLP103 60048 T01610100 10172 20156 53009
Conditions at: KLGB (LONG BEACH , CA, US) observed 2353 UTC 14 February 2019
Temperature: 16.1°C (61°F)
Dewpoint: 10.0°C (50°F) [RH = 67%]
Pressure (altimeter): 29.84 inches Hg (1010.6 mb)
[Sea-level pressure: 1010.3 mb]
Winds: from the W (260 degrees) at 18 MPH (16 knots; 8.2 m/s)
gusting to 24 MPH (21 knots; 10.8 m/s)
Visibility: 10 or more miles (16+ km)
Ceiling: at least 12,000 feet AGL
Clouds: few clouds at 2000 feet AGL
scattered clouds at 5000 feet AGL
Weather: no significant weather observed at this time

METAR text: KLGB 142253Z 28009KT 10SM FEW046 OVC060 17/12 A2981 RMK AO2 RAB10E30 SLP095 P0001 T01670117
Conditions at: KLGB (LONG BEACH , CA, US) observed 2253 UTC 14 February 2019
Temperature: 16.7°C (62°F)
Dewpoint: 11.7°C (53°F) [RH = 72%]
Pressure (altimeter): 29.81 inches Hg (1009.6 mb)
[Sea-level pressure: 1009.5 mb]
Winds: from the W (280 degrees) at 10 MPH (9 knots; 4.6 m/s)
Visibility: 10 or more miles (16+ km)
Ceiling: 6000 feet AGL
Clouds: few clouds at 4600 feet AGL
overcast cloud deck at 6000 feet AGL
Weather: no significant weather observed at this time

METAR text: KLGB 142218Z 26012G22KT 2SM R30/5500VP6000FT -RA FEW018 BKN025 OVC048 16/13 A2983 RMK AO2 VIS 1 1/4V4 RAB10 P0000 T01610128
Conditions at: KLGB (LONG BEACH , CA, US) observed 2218 UTC 14 February 2019
Temperature: 16.1°C (61°F)
Dewpoint: 12.8°C (55°F) [RH = 81%]
Pressure (altimeter): 29.83 inches Hg (1010.2 mb)
Winds: from the W (260 degrees) at 14 MPH (12 knots; 6.2 m/s)
gusting to 25 MPH (22 knots; 11.3 m/s)
Visibility: 2.00 miles (3.22 km)
Ceiling: 2500 feet AGL
Clouds: few clouds at 1800 feet AGL
broken clouds at 2500 feet AGL
overcast cloud deck at 4800 feet AGL
Weather: -RA  (light rain)

METAR text: KLGB 142153Z 26008G19KT 8SM SCT018 BKN060 OVC080 17/13 A2982 RMK AO2 RAE2057 SLP097 P0000 T01670128
Conditions at: KLGB (LONG BEACH , CA, US) observed 2153 UTC 14 February 2019
Temperature: 16.7°C (62°F)
Dewpoint: 12.8°C (55°F) [RH = 78%]
Pressure (altimeter): 29.82 inches Hg (1009.9 mb)
[Sea-level pressure: 1009.7 mb]
Winds: from the W (260 degrees) at 9 MPH (8 knots; 4.1 m/s)
gusting to 22 MPH (19 knots; 9.8 m/s)
Visibility: 8 miles (13 km)
Ceiling: 6000 feet AGL
Clouds: scattered clouds at 1800 feet AGL
broken clouds at 6000 feet AGL
overcast cloud deck at 8000 feet AGL
Weather: no significant weather observed at this time

METAR text: KLGB 142118Z 25009KT 8SM BKN016 BKN039 OVC055 17/14 A2982 RMK AO2 RAE2057 P0000 T01670139
Conditions at: KLGB (LONG BEACH , CA, US) observed 2118 UTC 14 February 2019
Temperature: 16.7°C (62°F)
Dewpoint: 13.9°C (57°F) [RH = 84%]
Pressure (altimeter): 29.82 inches Hg (1009.9 mb)
Winds: from the WSW (250 degrees) at 10 MPH (9 knots; 4.6 m/s)
Visibility: 8 miles (13 km)
Ceiling: 1600 feet AGL
Clouds: broken clouds at 1600 feet AGL
broken clouds at 3900 feet AGL
overcast cloud deck at 5500 feet AGL
Weather: no significant weather observed at this time

METAR text: KLGB 142053Z 25012KT 8SM -RA SCT016 BKN039 BKN055 17/14 A2981 RMK AO2 RAE15B45 SLP094 P0000 60047 T01670139 53015
Conditions at: KLGB (LONG BEACH , CA, US) observed 2053 UTC 14 February 2019
Temperature: 16.7°C (62°F)
Dewpoint: 13.9°C (57°F) [RH = 84%]
Pressure (altimeter): 29.81 inches Hg (1009.6 mb)
[Sea-level pressure: 1009.4 mb]
Winds: from the WSW (250 degrees) at 14 MPH (12 knots; 6.2 m/s)
Visibility: 8 miles (13 km)
Ceiling: 3900 feet AGL
Clouds: scattered clouds at 1600 feet AGL
broken clouds at 3900 feet AGL
broken clouds at 5500 feet AGL
Weather: -RA  (light rain)

METAR text: KLGB 141953Z 26013G20KT 4SM -RA FEW013 OVC044 17/14 A2978 RMK AO2 SLP085 P0026 T01670139
Conditions at: KLGB (LONG BEACH , CA, US) observed 1953 UTC 14 February 2019
Temperature: 16.7°C (62°F)
Dewpoint: 13.9°C (57°F) [RH = 84%]
Pressure (altimeter): 29.78 inches Hg (1008.5 mb)
[Sea-level pressure: 1008.5 mb]
Winds: from the W (260 degrees) at 15 MPH (13 knots; 6.7 m/s)
gusting to 23 MPH (20 knots; 10.3 m/s)
Visibility: 4 miles ( 6 km)
Ceiling: 4400 feet AGL
Clouds: few clouds at 1300 feet AGL
overcast cloud deck at 4400 feet AGL
Weather: -RA  (light rain)

METAR text: KLGB 141933Z 26013G19KT 2 1/2SM -RA BR BKN005 OVC029 17/16 A2980 RMK AO2 PRESRR P0022 T01720156
Conditions at: KLGB (LONG BEACH , CA, US) observed 1933 UTC 14 February 2019
Temperature: 17.2°C (63°F)
Dewpoint: 15.6°C (60°F) [RH = 90%]
Pressure (altimeter): 29.80 inches Hg (1009.2 mb)
Winds: from the W (260 degrees) at 15 MPH (13 knots; 6.7 m/s)
gusting to 22 MPH (19 knots; 9.8 m/s)
Visibility: 2.50 miles (4.02 km)
Ceiling: 500 feet AGL
Clouds: broken clouds at 500 feet AGL
overcast cloud deck at 2900 feet AGL
Weather: -RA BR  (light rain, mist)

METAR text: KLGB 141853Z 21007KT 1SM R30/2600VP6000FT +RA BR OVC003 17/16 A2979 RMK AO2 SLP086 P0021 T01670156
Conditions at: KLGB (LONG BEACH , CA, US) observed 1853 UTC 14 February 2019
Temperature: 16.7°C (62°F)
Dewpoint: 15.6°C (60°F) [RH = 93%]
Pressure (altimeter): 29.79 inches Hg (1008.9 mb)
[Sea-level pressure: 1008.6 mb]
Winds: from the SSW (210 degrees) at 8 MPH (7 knots; 3.6 m/s)
Visibility: 1.00 miles (1.61 km)
Ceiling: 300 feet AGL
Clouds: overcast cloud deck at 300 feet AGL
Weather: +RA BR  (heavy rain, mist)

METAR text: KLGB 141836Z 19008KT 3/4SM R30/4000VP6000FT RA BR OVC003 17/16 A2978 RMK AO2 P0007 T01670156
Conditions at: KLGB (LONG BEACH , CA, US) observed 1836 UTC 14 February 2019
Temperature: 16.7°C (62°F)
Dewpoint: 15.6°C (60°F) [RH = 93%]
Pressure (altimeter): 29.78 inches Hg (1008.5 mb)
Winds: from the S (190 degrees) at 9 MPH (8 knots; 4.1 m/s)
Visibility: 0.75 miles (1.21 km)
Ceiling: 300 feet AGL
Clouds: overcast cloud deck at 300 feet AGL
Weather: RA BR  (moderate rain, mist)

METAR text: KLGB 141831Z 19008KT 1 1/4SM R30/5000VP6000FT -RA BR OVC003 17/16 A2977 RMK AO2 P0006 T01670156
Conditions at: KLGB (LONG BEACH , CA, US) observed 1831 UTC 14 February 2019
Temperature: 16.7°C (62°F)
Dewpoint: 15.6°C (60°F) [RH = 93%]
Pressure (altimeter): 29.77 inches Hg (1008.2 mb)
Winds: from the S (190 degrees) at 9 MPH (8 knots; 4.1 m/s)
Visibility: 1.25 miles (2.01 km)
Ceiling: 300 feet AGL
Clouds: overcast cloud deck at 300 feet AGL
Weather: -RA BR  (light rain, mist)

METAR text: KLGB 141802Z 16009G17KT 1 1/2SM -RA BR OVC003 17/16 A2977 RMK AO2 P0002 T01670156
Conditions at: KLGB (LONG BEACH , CA, US) observed 1802 UTC 14 February 2019
Temperature: 16.7°C (62°F)
Dewpoint: 15.6°C (60°F) [RH = 93%]
Pressure (altimeter): 29.77 inches Hg (1008.2 mb)
Winds: from the SSE (160 degrees) at 10 MPH (9 knots; 4.6 m/s)
gusting to 20 MPH (17 knots; 8.7 m/s)
Visibility: 1.50 miles (2.41 km)
Ceiling: 300 feet AGL
Clouds: overcast cloud deck at 300 feet AGL
Weather: -RA BR  (light rain, mist)

METAR text: KLGB 141753Z 16011KT 2SM -RA BR OVC003 17/16 A2977 RMK AO2 SLP079 P0004 60087 T01670156 10167 20133 58014
Conditions at: KLGB (LONG BEACH , CA, US) observed 1753 UTC 14 February 2019
Temperature: 16.7°C (62°F)
Dewpoint: 15.6°C (60°F) [RH = 93%]
Pressure (altimeter): 29.77 inches Hg (1008.2 mb)
[Sea-level pressure: 1007.9 mb]
Winds: from the SSE (160 degrees) at 13 MPH (11 knots; 5.7 m/s)
Visibility: 2.00 miles (3.22 km)
Ceiling: 300 feet AGL
Clouds: overcast cloud deck at 300 feet AGL
Weather: -RA BR  (light rain, mist)

Forecast for: KLGB (LONG BEACH , CA, US)
Text: KLGB 160227Z 1602/1624 24009KT 3SM -SHRA BKN025
Forecast period: 0200 to 0400 UTC 16 February 2019
Forecast type: FROM: standard forecast or significant change
Winds: from the WSW (240 degrees) at 10 MPH (9 knots; 4.6 m/s)
Visibility: 3 miles (5 km)
Ceiling: 2500 feet AGL
Clouds: broken clouds at 2500 feet AGL
Weather: -SHRA  (light rain showers)
Text: FM160400 26012KT P6SM -SHRA SCT015 OVC025
Forecast period: 0400 to 0800 UTC 16 February 2019
Forecast type: FROM: standard forecast or significant change
Winds: from the W (260 degrees) at 14 MPH (12 knots; 6.2 m/s)
Visibility: 6 or more miles 10+ km)
Ceiling: 2500 feet AGL
Clouds: scattered clouds at 1500 feet AGL
overcast cloud deck at 2500 feet AGL
Weather: -SHRA  (light rain showers)
Text: FM160800 29011KT P6SM VCSH SCT030 BKN250
Forecast period: 0800 to 1200 UTC 16 February 2019
Forecast type: FROM: standard forecast or significant change
Winds: from the WNW (290 degrees) at 13 MPH (11 knots; 5.7 m/s)
Visibility: 6 or more miles 10+ km)
Ceiling: 25000 feet AGL
Clouds: scattered clouds at 3000 feet AGL
broken clouds at 25000 feet AGL
Weather: VCSH  (showers in vicinity)
Text: FM161200 30007KT P6SM SCT250
Forecast period: 1200 to 1900 UTC 16 February 2019
Forecast type: FROM: standard forecast or significant change
Winds: from the WNW (300 degrees) at 8 MPH (7 knots; 3.6 m/s)
Visibility: 6 or more miles 10+ km)
Ceiling: at least 12,000 feet AGL
Clouds: scattered clouds at 25000 feet AGL
Weather: no significant weather forecast for this period
Text: FM161900 28015G22KT P6SM SCT250
Forecast period: 1900 UTC 16 February 2019 to 0000 UTC 17 February 2019
Forecast type: FROM: standard forecast or significant change
Winds: from the W (280 degrees) at 17 MPH (15 knots; 7.7 m/s)
gusting to 25 MPH (22 knots; 11.3 m/s)
Visibility: 6 or more miles 10+ km)
Ceiling: at least 12,000 feet AGL
Clouds: scattered clouds at 25000 feet AGL
Weather: no significant weather forecast for this period